Time;durP1;ratioP1;P1;durP2;ratioP2;P2;SDS_P1;SDS_P2;PMS_P1;PMS_P2;Temp;Humidity;BMP_temperature;BMP_pressure;BME280_temperature;BME280_humidity;BME280_pressure;Samples;Min_cycle;Max_cycle;Signal;HPM_P1;HPM_P2
2021/06/02 00:00:30;;;;;;;4.93;3.75;;;;;;;14.21;63.45;101350.25;1023570;29;20133;-76
2021/06/02 00:01:08;;;;;;;8.38;4.28;;;;;;;14.22;63.39;101351.13;1028297;28;20046;-76
2021/06/02 00:01:55;;;;;;;;;;;;;;;14.25;63.42;101358.97;1024771;29;20059;-76
2021/06/02 00:02:26;;;;;;;6.97;4.03;;;;;;;14.24;63.81;101363.31;1027654;28;19926;-76
2021/06/02 00:03:00;;;;;;;4.32;3.92;;;;;;;14.25;63.64;101365.03;1027593;28;20062;-76
2021/06/02 00:03:32;;;;;;;8.20;4.35;;;;;;;14.26;63.24;101352.91;1030937;28;20525;-76
2021/06/02 00:04:07;;;;;;;4.93;3.97;;;;;;;14.23;63.93;101364.13;1032180;28;20054;-75
2021/06/02 00:04:51;;;;;;;4.88;4.18;;;;;;;14.13;64.13;101361.47;1033490;28;20526;-75
2021/06/02 00:05:23;;;;;;;7.18;4.10;;;;;;;14.08;64.50;101360.56;1032320;28;20491;-76
2021/06/02 00:05:55;;;;;;;9.20;4.43;;;;;;;14.15;64.47;101367.56;1032133;28;20050;-75
2021/06/02 00:06:29;;;;;;;7.47;4.25;;;;;;;14.01;64.62;101362.22;1032233;28;20449;-76
2021/06/02 00:07:04;;;;;;;4.93;4.05;;;;;;;14.07;64.65;101367.50;1028142;28;20133;-75
2021/06/02 00:07:36;;;;;;;4.15;3.60;;;;;;;14.09;64.09;101357.97;1027630;28;20058;-76
2021/06/02 00:08:09;;;;;;;6.60;3.85;;;;;;;14.01;64.68;101354.41;1029513;28;20047;-76
2021/06/02 00:08:43;;;;;;;5.60;4.05;;;;;;;14.08;64.57;101364.03;1028344;28;20450;-76
2021/06/02 00:09:16;;;;;;;4.30;3.90;;;;;;;14.11;64.55;101364.03;1028288;28;20046;-76
2021/06/02 00:09:49;;;;;;;6.97;4.10;;;;;;;14.10;64.57;101364.91;1028249;28;20403;-76
2021/06/02 00:10:20;;;;;;;5.07;4.28;;;;;;;14.11;64.59;101360.56;1025367;28;20051;-76
2021/06/02 00:10:53;;;;;;;5.30;4.20;;;;;;;14.15;64.43;101364.94;1024069;29;20059;-76
2021/06/02 00:11:25;;;;;;;7.30;5.03;;;;;;;14.17;64.52;101365.81;1024836;28;20062;-77
2021/06/02 00:12:00;;;;;;;5.03;4.18;;;;;;;14.15;64.20;101359.75;1020257;29;20136;-76
2021/06/02 00:12:33;;;;;;;7.95;4.05;;;;;;;14.08;64.55;101356.22;1021343;29;20179;-76
2021/06/02 00:13:06;;;;;;;5.30;4.07;;;;;;;14.07;64.49;101351.88;1021388;29;20062;-76
2021/06/02 00:13:38;;;;;;;6.18;4.15;;;;;;;14.06;64.60;101355.31;1024198;29;20433;-76
2021/06/02 00:14:10;;;;;;;6.78;4.68;;;;;;;14.07;63.92;101359.69;1028693;28;20054;-76
2021/06/02 00:14:42;;;;;;;5.43;4.18;;;;;;;14.11;64.29;101356.22;1032127;28;20054;-76
2021/06/02 00:15:14;;;;;;;5.75;3.92;;;;;;;14.03;64.81;101358.78;1028871;28;20066;-76
2021/06/02 00:15:48;;;;;;;5.65;4.03;;;;;;;14.06;64.34;101356.19;1028332;28;20078;-77
2021/06/02 00:16:19;;;;;;;4.18;3.83;;;;;;;14.04;64.87;101357.03;1028135;28;20117;-76
2021/06/02 00:16:52;;;;;;;17.17;4.85;;;;;;;14.02;64.79;101357.03;1025197;28;20054;-76
2021/06/02 00:17:24;;;;;;;4.10;3.70;;;;;;;14.02;64.44;101356.19;1028059;28;20061;-75
2021/06/02 00:18:00;;;;;;;4.43;4.03;;;;;;;13.97;64.41;101353.53;1028166;28;20054;-76
2021/06/02 00:18:31;;;;;;;4.72;4.30;;;;;;;13.91;65.40;101352.59;1025539;28;20476;-76
2021/06/02 00:19:03;;;;;;;5.97;3.83;;;;;;;13.92;64.93;101355.22;1029268;28;20050;-76
2021/06/02 00:19:35;;;;;;;6.28;4.10;;;;;;;13.91;64.93;101353.47;1032174;28;20077;-75
2021/06/02 00:20:08;;;;;;;4.88;4.35;;;;;;;13.89;65.13;101357.75;1031852;28;20084;-76
2021/06/02 00:20:40;;;;;;;4.10;3.65;;;;;;;13.85;65.08;101362.94;1031481;28;20046;-76
2021/06/02 00:21:13;;;;;;;5.78;4.28;;;;;;;13.81;65.58;101359.44;1028128;28;20058;-75
2021/06/02 00:21:45;;;;;;;6.45;4.28;;;;;;;13.75;65.65;101352.44;1025059;28;20086;-76
2021/06/02 00:22:16;;;;;;;5.22;3.92;;;;;;;13.82;64.89;101355.97;1027975;28;20057;-76
2021/06/02 00:22:48;;;;;;;6.85;4.38;;;;;;;13.81;65.31;101351.63;1028178;28;20622;-75
2021/06/02 00:23:21;;;;;;;6.50;4.00;;;;;;;13.83;66.28;101355.09;1028152;28;20466;-76
2021/06/02 00:23:52;;;;;;;4.20;3.80;;;;;;;13.82;65.45;101353.38;1028056;28;20145;-76
2021/06/02 00:24:25;;;;;;;5.35;3.97;;;;;;;13.85;65.24;101352.53;1024212;29;20138;-76
2021/06/02 00:24:57;;;;;;;5.43;3.88;;;;;;;13.72;65.60;101352.41;1024821;28;20058;-76
2021/06/02 00:25:28;;;;;;;9.73;4.10;;;;;;;13.67;65.78;101354.09;1028658;28;20391;-75
2021/06/02 00:26:01;;;;;;;4.68;3.47;;;;;;;13.63;65.86;101354.94;1032209;28;20053;-75
2021/06/02 00:26:38;;;;;;;6.55;3.78;;;;;;;13.65;65.90;101354.94;1032203;28;20077;-75
2021/06/02 00:27:11;;;;;;;4.82;3.78;;;;;;;13.65;65.85;101358.41;1031821;28;20051;-75
2021/06/02 00:27:44;;;;;;;4.80;3.65;;;;;;;13.62;66.19;101358.38;1028146;28;20058;-76
2021/06/02 00:28:16;;;;;;;6.05;4.40;;;;;;;13.67;65.94;101368.81;1028284;28;20050;-76
2021/06/02 00:28:48;;;;;;;5.95;4.78;;;;;;;13.65;66.01;101361.00;1025080;28;20062;-76
2021/06/02 00:29:24;;;;;;;8.35;3.70;;;;;;;13.59;66.13;101355.75;1028921;28;20522;-76
2021/06/02 00:29:59;;;;;;;7.25;4.45;;;;;;;13.51;66.79;101355.66;1032271;28;20050;-75
2021/06/02 00:30:32;;;;;;;6.03;4.22;;;;;;;13.40;67.13;101357.28;1028636;28;20057;-76
2021/06/02 00:31:05;;;;;;;4.80;4.28;;;;;;;13.40;67.11;101365.06;1028045;28;20072;-76
2021/06/02 00:31:38;;;;;;;5.68;4.53;;;;;;;13.47;66.72;101358.22;1024395;28;20047;-76
2021/06/02 00:32:13;;;;;;;6.97;4.47;;;;;;;13.51;66.62;101360.88;1029263;28;20051;-75
2021/06/02 00:32:46;;;;;;;6.68;4.45;;;;;;;13.51;67.18;101358.25;1032088;28;20076;-75
2021/06/02 00:33:19;;;;;;;4.75;4.13;;;;;;;13.50;67.10;101358.22;1032057;28;20426;-75
2021/06/02 00:33:54;;;;;;;6.15;4.15;;;;;;;13.51;66.84;101354.78;1032211;28;20415;-75
2021/06/02 00:34:26;;;;;;;5.15;4.38;;;;;;;13.49;66.69;101362.56;1032409;28;20062;-75
2021/06/02 00:35:00;;;;;;;5.78;4.20;;;;;;;13.43;67.34;101352.09;1030878;28;20053;-75
2021/06/02 00:35:31;;;;;;;7.78;4.53;;;;;;;13.51;67.07;101357.41;1028372;28;20054;-75
2021/06/02 00:36:04;;;;;;;9.80;4.68;;;;;;;13.44;67.32;101358.16;1028529;28;20054;-75
2021/06/02 00:36:40;;;;;;;9.07;4.72;;;;;;;13.40;68.01;101354.69;1028516;28;20050;-75
2021/06/02 00:37:11;;;;;;;5.72;4.60;;;;;;;13.44;67.02;101351.25;1028158;28;20047;-75
2021/06/02 00:37:43;;;;;;;6.97;4.07;;;;;;;13.46;67.13;101359.94;1028079;28;20051;-75
2021/06/02 00:38:15;;;;;;;5.75;4.65;;;;;;;13.45;67.09;101350.41;1029911;28;20538;-75
2021/06/02 00:38:47;;;;;;;6.30;4.90;;;;;;;13.49;66.93;101356.47;1028033;28;20057;-75
2021/06/02 00:39:18;;;;;;;8.00;5.07;;;;;;;13.52;67.08;101359.13;1024407;28;20059;-75
2021/06/02 00:39:51;;;;;;;7.00;4.75;;;;;;;13.45;67.21;101352.13;1028010;28;20058;-76
2021/06/02 00:40:46;;;;;;;7.63;4.53;;;;;;;13.52;67.40;101356.53;1028214;28;20431;-75
2021/06/02 00:41:19;;;;;;;6.65;4.70;;;;;;;13.50;67.25;101355.63;1031936;28;20046;-76
2021/06/02 00:41:53;;;;;;;5.32;4.82;;;;;;;13.54;67.61;101362.63;1028034;28;20062;-75
2021/06/02 00:42:29;;;;;;;5.78;4.57;;;;;;;13.59;66.91;101360.06;1032226;28;20058;-75
2021/06/02 00:43:03;;;;;;;9.85;5.40;;;;;;;13.61;67.00;101356.63;1027126;28;20051;-75
2021/06/02 00:43:35;;;;;;;5.43;4.47;;;;;;;13.63;66.63;101360.13;1021851;29;20048;-75
2021/06/02 00:44:12;;;;;;;8.05;4.78;;;;;;;13.67;67.30;101353.22;1020018;29;20047;-76
2021/06/02 00:44:44;;;;;;;7.93;5.20;;;;;;;13.70;67.27;101359.31;1021793;29;20043;-76
2021/06/02 00:45:17;;;;;;;7.82;5.05;;;;;;;13.71;66.73;101350.66;1021430;29;20496;-77
2021/06/02 00:45:48;;;;;;;6.97;4.50;;;;;;;13.67;67.26;101350.59;1021805;29;20055;-75
2021/06/02 00:46:22;;;;;;;5.00;4.60;;;;;;;13.64;67.21;101356.66;1023973;29;20062;-75
2021/06/02 00:46:57;;;;;;;6.82;4.95;;;;;;;13.68;66.91;101352.38;1025083;28;20133;-75
2021/06/02 00:47:29;;;;;;;7.97;5.22;;;;;;;13.72;66.82;101355.00;1025336;28;20047;-75
2021/06/02 00:48:02;;;;;;;8.07;5.18;;;;;;;13.70;66.82;101356.72;1029796;28;20411;-75
2021/06/02 00:48:37;;;;;;;6.82;4.88;;;;;;;13.72;67.90;101354.13;1032222;28;20056;-75
2021/06/02 00:49:11;;;;;;;7.13;5.13;;;;;;;13.66;67.55;101360.13;1032239;28;20047;-75
2021/06/02 00:49:44;;;;;;;7.18;5.22;;;;;;;13.65;67.22;101350.59;1032080;28;20542;-76
2021/06/02 00:50:15;;;;;;;6.82;6.10;;;;;;;13.67;67.08;101351.50;1032264;28;20396;-76
2021/06/02 00:50:49;;;;;;;6.53;5.43;;;;;;;13.65;67.84;101355.81;1028138;28;20059;-76
2021/06/02 00:51:22;;;;;;;6.13;4.90;;;;;;;13.60;67.87;101349.69;1023973;29;20066;-76
2021/06/02 00:52:03;;;;;;;8.10;4.95;;;;;;;13.55;68.64;101347.88;1024159;29;20142;-76
2021/06/02 00:52:36;;;;;;;7.05;5.60;;;;;;;13.62;68.03;101354.91;1022125;29;20052;-75
2021/06/02 00:53:08;;;;;;;7.75;5.05;;;;;;;13.64;67.70;101354.06;1026136;28;20074;-75
2021/06/02 00:53:40;;;;;;;6.15;5.53;;;;;;;13.63;68.27;101349.72;1028179;28;20506;-77
2021/06/02 00:54:13;;;;;;;5.32;4.82;;;;;;;13.62;68.12;101344.50;1028047;28;20054;-75
2021/06/02 00:54:45;;;;;;;5.40;4.90;;;;;;;13.61;67.87;101345.34;1031628;28;20054;-76
2021/06/02 00:55:16;;;;;;;7.32;6.03;;;;;;;13.67;67.98;101351.50;1028408;28;20062;-76
2021/06/02 00:55:48;;;;;;;5.85;5.25;;;;;;;13.68;69.05;101348.03;1028229;28;20475;-75
2021/06/02 00:56:42;;;;;;;7.57;4.78;;;;;;;13.63;68.62;101349.72;1031239;28;20058;-75
2021/06/02 00:57:19;;;;;;;6.00;5.07;;;;;;;13.66;68.44;101351.47;1027813;28;20061;-75
2021/06/02 00:57:54;;;;;;;6.28;5.75;;;;;;;13.71;67.77;101348.06;1024136;29;20138;-76
2021/06/02 00:58:29;;;;;;;5.57;5.07;;;;;;;13.71;68.18;101345.47;1024119;29;20058;-75
2021/06/02 00:59:02;;;;;;;7.65;6.22;;;;;;;13.72;68.42;101344.59;1021800;29;20051;-76
2021/06/02 00:59:42;;;;;;;9.18;5.60;;;;;;;13.67;68.72;101350.59;1021534;29;20075;-76
2021/06/02 01:00:14;;;;;;;8.63;5.45;;;;;;;13.63;69.22;101346.25;1022406;29;20059;-75
2021/06/02 01:00:47;;;;;;;7.93;6.00;;;;;;;13.67;69.00;101342.81;1025940;28;20484;-76
2021/06/02 01:01:20;;;;;;;10.18;6.55;;;;;;;13.71;69.02;101353.25;1025967;28;20062;-76
2021/06/02 01:01:51;;;;;;;6.32;5.72;;;;;;;13.69;69.23;101354.13;1029028;28;20050;-75
2021/06/02 01:02:24;;;;;;;6.60;5.80;;;;;;;13.70;68.84;101350.66;1032018;28;20051;-76
2021/06/02 01:02:56;;;;;;;7.10;5.53;;;;;;;13.65;69.02;101350.59;1032117;28;20184;-75
2021/06/02 01:03:29;;;;;;;7.13;5.65;;;;;;;13.68;69.24;101349.78;1031892;28;20058;-76
2021/06/02 01:04:04;;;;;;;6.65;5.90;;;;;;;13.67;69.18;101343.72;1027323;28;20098;-75
2021/06/02 01:04:36;;;;;;;9.23;6.13;;;;;;;13.65;69.21;101345.41;1020046;29;20051;-75
2021/06/02 01:05:09;;;;;;;8.23;6.15;;;;;;;13.74;69.05;101347.25;1017198;29;20429;-75
2021/06/02 01:05:41;;;;;;;8.50;6.13;;;;;;;13.76;68.77;101348.13;1022254;28;20051;-76
2021/06/02 01:06:13;;;;;;;7.88;6.15;;;;;;;13.74;68.82;101352.44;1028845;28;20058;-75
2021/06/02 01:06:45;;;;;;;7.57;5.43;;;;;;;13.76;68.91;101346.38;1032675;28;20150;-76
2021/06/02 01:07:17;;;;;;;7.65;6.85;;;;;;;13.76;69.02;101342.91;1031393;28;20050;-76
2021/06/02 01:07:53;;;;;;;13.05;7.18;;;;;;;13.79;68.96;101350.75;1027970;28;20545;-75
2021/06/02 01:08:25;;;;;;;9.48;6.13;;;;;;;13.76;69.32;101351.59;1028022;28;20081;-76
2021/06/02 01:09:00;;;;;;;11.43;6.53;;;;;;;13.77;69.56;101340.31;1029065;28;20058;-75
2021/06/02 01:09:34;;;;;;;7.57;5.90;;;;;;;13.75;69.33;101342.03;1028164;28;20050;-75
2021/06/02 01:10:06;;;;;;;7.68;6.88;;;;;;;13.78;69.42;101347.28;1027893;28;20054;-75
2021/06/02 01:10:38;;;;;;;8.30;6.70;;;;;;;13.75;69.67;101339.44;1024969;28;20082;-75
2021/06/02 01:11:10;;;;;;;7.50;5.57;;;;;;;13.78;69.67;101346.38;1028754;28;20043;-75
2021/06/02 01:11:42;;;;;;;7.30;5.75;;;;;;;13.78;69.34;101344.69;1027893;28;20542;-75
2021/06/02 01:12:20;;;;;;;8.45;7.07;;;;;;;13.77;69.63;101340.31;1022997;29;20065;-75
2021/06/02 01:12:55;;;;;;;7.60;6.65;;;;;;;13.81;69.72;101342.97;1023882;29;20056;-75
2021/06/02 01:13:29;;;;;;;7.43;6.47;;;;;;;13.79;69.69;101343.81;1021999;29;20148;-76
2021/06/02 01:14:02;;;;;;;8.45;6.68;;;;;;;13.79;69.71;101348.16;1025076;28;20051;-75
2021/06/02 01:14:34;;;;;;;8.75;7.13;;;;;;;13.79;69.82;101342.97;1028034;28;20435;-75
2021/06/02 01:15:06;;;;;;;9.73;6.38;;;;;;;13.77;69.71;101345.50;1026752;28;20058;-76
2021/06/02 01:15:39;;;;;;;7.68;6.13;;;;;;;13.73;70.76;101348.97;1031077;28;20046;-75
2021/06/02 01:16:10;;;;;;;10.00;7.22;;;;;;;13.72;69.82;101346.31;1031904;28;20050;-75
2021/06/02 01:16:42;;;;;;;10.48;6.75;;;;;;;13.69;70.00;101341.97;1028818;28;20243;-75
2021/06/02 01:17:16;;;;;;;11.07;6.97;;;;;;;13.71;70.42;101347.19;1031929;28;20073;-76
2021/06/02 01:17:48;;;;;;;9.02;6.85;;;;;;;13.64;70.78;101345.41;1032059;28;20050;-75
2021/06/02 01:18:20;;;;;;;9.68;6.85;;;;;;;13.63;70.66;101348.84;1027836;28;20086;-75
2021/06/02 01:18:52;;;;;;;8.70;7.32;;;;;;;13.65;70.78;101345.41;1028956;28;20138;-76
2021/06/02 01:19:23;;;;;;;9.50;7.72;;;;;;;13.69;70.46;101346.31;1028118;28;20058;-75
2021/06/02 01:19:57;;;;;;;7.20;6.20;;;;;;;13.68;70.58;101344.56;1028106;28;20479;-76
2021/06/02 01:20:29;;;;;;;9.30;6.32;;;;;;;13.63;70.51;101339.31;1028769;28;20046;-75
2021/06/02 01:21:02;;;;;;;10.35;6.63;;;;;;;13.71;70.17;101339.38;1028034;28;20047;-75
2021/06/02 01:21:33;;;;;;;8.60;6.30;;;;;;;13.71;69.84;101337.66;1028113;28;20051;-76
2021/06/02 01:22:05;;;;;;;7.68;6.55;;;;;;;13.68;69.73;101336.78;1021428;29;20059;-75
2021/06/02 01:22:39;;;;;;;10.55;7.00;;;;;;;13.70;70.29;101340.25;1024480;28;20051;-75
2021/06/02 01:23:12;;;;;;;8.88;7.22;;;;;;;13.66;70.72;101343.66;1028057;28;20053;-75
2021/06/02 01:23:44;;;;;;;9.57;7.95;;;;;;;13.64;70.83;101346.25;1023940;29;20078;-75
2021/06/02 01:24:16;;;;;;;9.43;7.25;;;;;;;13.61;71.08;101338.41;1021341;29;20543;-76
2021/06/02 01:24:48;;;;;;;11.65;7.55;;;;;;;13.60;71.49;101336.69;1020183;29;20051;-76
2021/06/02 01:25:22;;;;;;;7.57;6.72;;;;;;;13.60;71.67;101343.59;1020407;29;20079;-75
2021/06/02 01:25:54;;;;;;;9.25;7.30;;;;;;;13.61;71.43;101343.63;1024874;28;20514;-75
2021/06/02 01:26:28;;;;;;;8.35;7.20;;;;;;;13.58;71.52;101334.94;1028943;28;20061;-76
2021/06/02 01:27:02;;;;;;;10.32;7.78;;;;;;;13.62;71.41;101336.72;1029223;28;20121;-75
2021/06/02 01:27:33;;;;;;;8.63;7.63;;;;;;;13.65;70.83;101335.00;1032050;28;20046;-75
2021/06/02 01:28:05;;;;;;;8.70;7.10;;;;;;;13.64;71.24;101340.19;1031887;28;20143;-76
2021/06/02 01:28:37;;;;;;;7.60;6.90;;;;;;;13.65;71.72;101336.72;1031868;28;20054;-76
2021/06/02 01:29:08;;;;;;;9.52;8.52;;;;;;;13.68;71.79;101337.66;1031872;28;20438;-76
2021/06/02 01:29:49;;;;;;;10.65;7.53;;;;;;;13.72;71.79;101339.41;1032084;28;20236;-76
2021/06/02 01:30:22;;;;;;;10.85;8.00;;;;;;;13.72;71.27;101342.00;1029642;28;20051;-75
2021/06/02 01:30:54;;;;;;;11.85;7.82;;;;;;;13.70;72.03;101340.25;1027943;28;20054;-76
2021/06/02 01:31:44;;;;;;;12.25;7.22;;;;;;;13.66;72.01;101338.47;1027911;28;20130;-75
2021/06/02 01:32:37;;;;;;;8.45;7.43;;;;;;;13.64;72.14;101333.25;1027105;28;20476;-75
2021/06/02 01:33:16;;;;;;;9.18;7.35;;;;;;;13.61;71.74;101337.53;1024434;28;20047;-76
2021/06/02 01:34:03;;;;;;;8.13;6.47;;;;;;;13.60;72.26;101334.06;1024145;28;20051;-75
2021/06/02 01:34:37;;;;;;;8.38;6.90;;;;;;;13.63;73.03;101335.84;1024141;29;20383;-75
2021/06/02 01:35:40;;;;;;;11.93;7.78;;;;;;;13.56;72.85;101340.13;1027787;28;20046;-76
2021/06/02 01:36:13;;;;;;;10.93;8.05;;;;;;;13.52;73.08;101331.41;1028762;28;20043;-76
2021/06/02 01:37:03;;;;;;;12.40;8.57;;;;;;;13.57;73.12;101338.41;1027922;28;20050;-76
2021/06/02 01:37:59;;;;;;;9.63;8.30;;;;;;;13.67;73.24;101337.59;1028165;28;20042;-75
2021/06/02 01:38:30;;;;;;;10.05;8.25;;;;;;;13.70;72.84;101335.06;1028029;28;20046;-76
2021/06/02 01:39:28;;;;;;;11.52;8.48;;;;;;;13.69;72.83;101335.91;1028098;28;20051;-76
2021/06/02 01:40:42;;;;;;;10.00;7.97;;;;;;;13.67;72.75;101337.59;1031371;28;20050;-76
2021/06/02 01:41:23;;;;;;;11.43;9.13;;;;;;;13.65;73.04;101336.72;1027756;28;20047;-76
2021/06/02 01:42:18;;;;;;;10.32;8.32;;;;;;;13.63;73.58;101338.47;1023325;29;20047;-75
2021/06/02 01:43:36;;;;;;;11.25;8.52;;;;;;;13.68;73.38;101341.97;1016247;29;20063;-76
2021/06/02 01:44:44;;;;;;;10.82;7.72;;;;;;;13.56;74.17;101332.31;1028109;28;20046;-75
2021/06/02 01:45:56;;;;;;;11.32;8.30;;;;;;;13.59;73.89;101341.88;1031728;28;20046;-75
2021/06/02 01:46:46;;;;;;;9.35;7.78;;;;;;;13.62;73.60;101340.19;1030204;28;20161;-76
2021/06/02 01:47:35;;;;;;;10.25;8.50;;;;;;;13.67;73.69;101338.50;1024137;29;20078;-75
2021/06/02 01:48:24;;;;;;;8.85;7.95;;;;;;;13.63;73.50;101334.13;1024988;28;20121;-75
2021/06/02 01:49:22;;;;;;;10.25;8.68;;;;;;;13.67;73.70;101332.41;1024848;28;20396;-76
2021/06/02 01:50:08;;;;;;;15.48;9.27;;;;;;;13.71;72.99;101335.06;1027966;28;20065;-76
2021/06/02 01:51:01;;;;;;;14.68;8.90;;;;;;;13.71;73.42;101336.78;1027961;28;20134;-75
2021/06/02 01:52:07;;;;;;;13.30;9.40;;;;;;;13.67;73.57;101335.00;1027919;28;20134;-75
2021/06/02 01:53:21;;;;;;;10.30;8.70;;;;;;;13.55;73.69;101337.47;1031667;28;20054;-75
2021/06/02 01:54:25;;;;;;;13.57;9.25;;;;;;;13.60;74.26;101336.69;1027346;28;20133;-75
2021/06/02 01:55:18;;;;;;;11.43;8.00;;;;;;;13.64;74.06;101333.25;1029122;28;20046;-75
2021/06/02 01:56:11;;;;;;;13.80;8.52;;;;;;;13.63;73.85;101334.13;1032295;28;20054;-76
2021/06/02 01:57:04;;;;;;;10.63;8.40;;;;;;;13.49;74.44;101328.75;1032146;28;20153;-76
2021/06/02 01:57:59;;;;;;;8.40;7.47;;;;;;;13.50;74.25;101338.34;1031946;28;20386;-75
2021/06/02 01:58:52;;;;;;;9.77;8.73;;;;;;;13.58;75.11;101332.34;1028148;28;20061;-75
2021/06/02 01:59:58;;;;;;;16.13;9.55;;;;;;;13.58;74.39;101333.19;1027055;28;20070;-75
2021/06/02 02:00:54;;;;;;;12.98;9.18;;;;;;;13.78;74.55;101328.19;1027502;28;20053;-75
2021/06/02 02:01:50;;;;;;;12.98;9.60;;;;;;;13.76;73.79;101335.09;1027823;28;20058;-75
2021/06/02 02:02:51;;;;;;;10.75;8.35;;;;;;;13.77;74.69;101335.13;1028409;28;20042;-76
2021/06/02 02:03:41;;;;;;;12.77;9.60;;;;;;;13.84;74.29;101325.66;1032049;28;20053;-75
2021/06/02 02:04:50;;;;;;;15.68;11.00;;;;;;;13.82;74.42;101326.50;1031965;28;20057;-75
2021/06/02 02:06:02;;;;;;;11.18;9.32;;;;;;;13.70;74.61;101333.31;1031986;28;20414;-75
2021/06/02 02:06:47;;;;;;;13.35;9.38;;;;;;;13.74;74.33;101329.03;1031833;28;20061;-76
2021/06/02 02:07:56;;;;;;;11.70;9.80;;;;;;;13.78;74.68;101329.09;1031218;28;20054;-76
2021/06/02 02:08:58;;;;;;;11.20;9.25;;;;;;;13.72;74.60;101325.53;1031929;28;20046;-76
2021/06/02 02:09:50;;;;;;;9.88;8.43;;;;;;;13.74;74.35;101322.09;1027946;28;20495;-75
2021/06/02 02:10:38;;;;;;;11.02;9.40;;;;;;;13.74;74.79;101322.09;1024115;29;20059;-75
2021/06/02 02:11:35;;;;;;;12.98;8.85;;;;;;;13.77;74.70;101318.63;1021036;29;20500;-75
2021/06/02 02:12:29;;;;;;;10.25;8.90;;;;;;;13.85;74.88;101324.81;1022319;28;20385;-76
2021/06/02 02:13:28;;;;;;;14.93;9.98;;;;;;;13.77;74.84;101329.03;1030420;28;20061;-75
2021/06/02 02:14:18;;;;;;;12.90;10.20;;;;;;;13.75;74.52;101322.97;1030704;28;20050;-75
2021/06/02 02:14:58;;;;;;;10.85;9.43;;;;;;;13.75;74.54;101331.63;1031969;28;20050;-75
2021/06/02 02:15:43;;;;;;;15.45;9.60;;;;;;;13.71;74.00;101324.66;1030663;28;20055;-75
2021/06/02 02:16:26;;;;;;;13.60;9.75;;;;;;;13.70;75.20;101322.91;1028468;28;20054;-76
2021/06/02 02:17:35;;;;;;;13.82;10.05;;;;;;;13.74;74.78;101329.03;1031846;28;20073;-76
2021/06/02 02:18:22;;;;;;;13.40;8.82;;;;;;;13.65;74.88;101326.31;1028067;28;20050;-75
2021/06/02 02:19:12;;;;;;;14.05;9.70;;;;;;;13.65;74.80;101324.59;1028137;28;20506;-75
2021/06/02 02:20:22;;;;;;;10.98;9.00;;;;;;;13.59;75.21;101328.88;1027925;28;20384;-76
2021/06/02 02:21:11;;;;;;;10.55;9.45;;;;;;;13.53;76.08;101335.75;1028440;28;20058;-75
2021/06/02 02:21:53;;;;;;;12.63;9.60;;;;;;;13.51;75.22;101327.06;1031670;28;20471;-75
2021/06/02 02:22:33;;;;;;;13.30;10.25;;;;;;;13.53;75.66;101330.53;1027689;28;20050;-75
2021/06/02 02:23:26;;;;;;;12.15;9.73;;;;;;;13.58;75.53;101340.13;1027873;28;20058;-75
2021/06/02 02:24:12;;;;;;;14.30;9.02;;;;;;;13.53;75.77;101337.47;1027269;28;20396;-75
2021/06/02 02:25:07;;;;;;;12.35;9.32;;;;;;;13.51;75.90;101331.41;1027985;28;20054;-75
2021/06/02 02:25:49;;;;;;;11.77;9.82;;;;;;;13.51;75.62;101327.06;1021262;29;20048;-76
2021/06/02 02:26:35;;;;;;;11.50;9.10;;;;;;;13.45;75.45;101332.22;1024663;28;20055;-75
2021/06/02 02:27:41;;;;;;;9.05;7.80;;;;;;;13.43;74.99;101327.81;1026639;28;20051;-75
2021/06/02 02:28:48;;;;;;;13.43;9.23;;;;;;;13.39;75.83;101324.34;1026481;28;20047;-76
2021/06/02 02:29:42;;;;;;;13.55;9.05;;;;;;;13.32;75.81;101322.50;1027913;28;20077;-75
2021/06/02 02:30:30;;;;;;;8.40;7.60;;;;;;;13.30;75.80;101319.03;1030025;28;20149;-75
2021/06/02 02:31:10;;;;;;;11.07;8.68;;;;;;;13.32;75.91;101325.09;1027832;28;20050;-75
2021/06/02 02:32:09;;;;;;;8.48;7.63;;;;;;;13.30;75.99;101326.81;1027923;28;20097;-75
2021/06/02 02:33:07;;;;;;;12.10;7.95;;;;;;;13.26;75.56;101319.84;1028019;28;20058;-75
2021/06/02 02:33:47;;;;;;;8.43;7.40;;;;;;;13.24;75.38;101321.56;1027844;28;20058;-75
2021/06/02 02:34:44;;;;;;;7.22;6.50;;;;;;;13.24;75.83;101325.03;1025041;28;20050;-75
2021/06/02 02:35:21;;;;;;;10.80;8.20;;;;;;;13.14;76.25;101325.75;1024520;28;20051;-75
2021/06/02 02:36:07;;;;;;;8.55;7.65;;;;;;;13.16;76.11;101321.44;1028072;28;20046;-75
2021/06/02 02:36:42;;;;;;;10.25;7.32;;;;;;;13.07;76.37;101323.06;1027811;28;20046;-75
2021/06/02 02:37:44;;;;;;;11.48;8.40;;;;;;;13.08;76.52;101327.41;1027900;28;20108;-75
2021/06/02 02:38:32;;;;;;;10.55;8.23;;;;;;;13.10;76.05;101323.94;1017352;29;20436;-75
2021/06/02 02:39:09;;;;;;;10.70;7.32;;;;;;;13.07;75.89;101321.31;1026384;28;20054;-75
2021/06/02 02:39:56;;;;;;;10.52;8.02;;;;;;;13.03;76.58;101318.66;1028171;28;20050;-75
2021/06/02 02:40:42;;;;;;;12.75;8.82;;;;;;;13.06;76.23;101322.19;1028197;28;20051;-75
2021/06/02 02:41:49;;;;;;;10.25;8.25;;;;;;;13.06;76.58;101318.72;1028138;28;20062;-76
2021/06/02 02:42:38;;;;;;;11.10;7.53;;;;;;;12.99;76.76;101322.97;1019610;29;20056;-75
2021/06/02 02:43:18;;;;;;;9.80;8.30;;;;;;;12.92;76.78;101318.53;1018220;29;20449;-75
2021/06/02 02:44:27;;;;;;;11.60;8.95;;;;;;;12.90;77.32;101318.53;1019825;29;20066;-76
2021/06/02 02:45:27;;;;;;;9.20;7.88;;;;;;;12.88;76.97;101325.44;1020924;28;20075;-75
2021/06/02 02:46:09;;;;;;;9.73;7.60;;;;;;;12.80;77.19;101313.19;1024532;29;20050;-75
2021/06/02 02:47:11;;;;;;;10.70;7.53;;;;;;;12.78;77.67;101313.16;1022217;29;20047;-75
2021/06/02 02:47:54;;;;;;;12.23;7.90;;;;;;;12.80;76.85;101314.06;1018019;29;20130;-76
2021/06/02 02:49:12;;;;;;;8.02;7.22;;;;;;;12.73;78.22;101312.22;1027956;28;20053;-75
2021/06/02 02:49:54;;;;;;;9.38;7.60;;;;;;;12.72;78.07;101315.69;1012337;29;20068;-76
2021/06/02 02:50:34;;;;;;;12.63;8.35;;;;;;;12.65;78.53;101309.53;1021522;28;20488;-75
2021/06/02 02:51:27;;;;;;;10.20;7.63;;;;;;;12.64;78.42;101317.28;1028478;28;20055;-76
2021/06/02 02:52:09;;;;;;;10.40;8.15;;;;;;;12.66;78.68;101318.19;1024691;28;20059;-76
2021/06/02 02:52:41;;;;;;;8.98;7.97;;;;;;;12.71;78.00;101313.94;1024717;29;20043;-75
2021/06/02 02:53:20;;;;;;;8.57;7.68;;;;;;;12.76;76.89;101317.44;1028552;28;20051;-75
2021/06/02 02:54:18;;;;;;;8.65;7.78;;;;;;;12.71;78.12;101317.41;1031478;28;20042;-75
2021/06/02 02:54:55;;;;;;;9.40;7.75;;;;;;;12.69;78.21;101316.50;1028528;28;20062;-76
2021/06/02 02:55:29;;;;;;;10.10;7.60;;;;;;;12.69;78.11;101313.03;1032693;28;20054;-75
2021/06/02 02:56:09;;;;;;;9.57;7.63;;;;;;;12.71;77.79;101316.53;1032518;28;20069;-76
2021/06/02 02:56:55;;;;;;;9.55;7.75;;;;;;;12.68;78.03;101316.50;1032491;28;20054;-75
2021/06/02 02:57:36;;;;;;;12.38;8.20;;;;;;;12.63;78.68;101312.94;1028438;28;20059;-75
2021/06/02 02:58:32;;;;;;;9.55;7.95;;;;;;;12.62;78.33;101308.63;1028453;28;20051;-75
2021/06/02 02:59:12;;;;;;;8.52;7.38;;;;;;;12.52;78.71;101304.13;1025418;28;20051;-75
2021/06/02 02:59:54;;;;;;;9.25;7.18;;;;;;;12.57;77.21;101311.13;1028684;28;20069;-75
2021/06/02 03:00:33;;;;;;;8.35;7.38;;;;;;;12.56;78.94;101312.00;1024347;29;20055;-75
2021/06/02 03:01:20;;;;;;;10.80;8.25;;;;;;;12.52;79.05;101311.94;1031376;28;20565;-75
2021/06/02 03:02:07;;;;;;;9.98;7.47;;;;;;;12.55;78.87;101314.59;1028423;28;20051;-75
2021/06/02 03:02:44;;;;;;;10.18;7.65;;;;;;;12.56;78.44;101306.81;1032561;28;20061;-75
2021/06/02 03:03:42;;;;;;;10.80;7.30;;;;;;;12.48;79.14;101308.44;1032493;28;20065;-74
2021/06/02 03:04:22;;;;;;;7.28;6.57;;;;;;;12.45;78.77;101309.25;1029007;28;20426;-75
2021/06/02 03:04:58;;;;;;;8.00;6.70;;;;;;;12.41;79.30;101304.84;1032546;28;20050;-75
2021/06/02 03:05:31;;;;;;;10.23;7.20;;;;;;;12.39;79.63;101308.28;1032624;28;20046;-75
2021/06/02 03:06:23;;;;;;;12.10;7.05;;;;;;;12.39;79.02;101301.38;1028480;28;20388;-75
2021/06/02 03:07:01;;;;;;;15.48;7.25;;;;;;;12.30;80.11;101308.13;1024567;29;20126;-75
2021/06/02 03:07:37;;;;;;;9.65;7.43;;;;;;;12.38;79.60;101306.56;1027157;28;20495;-76
2021/06/02 03:08:09;;;;;;;8.73;7.43;;;;;;;12.40;78.59;101303.13;1028329;28;20061;-76